Time;durP1;ratioP1;P1;durP2;ratioP2;P2;SDS_P1;SDS_P2;PMS_P1;PMS_P2;Temp;Humidity;BMP_temperature;BMP_pressure;BME280_temperature;BME280_humidity;BME280_pressure;Samples;Min_cycle;Max_cycle;Signal;HPM_P1;HPM_P2
2021/12/30 00:01:43;;;;;;;31.65;5.97;;;9.30;99.90;;;;;;5015640;28;20041;-66
2021/12/30 00:04:09;;;;;;;25.83;5.68;;;9.20;99.90;;;;;;5009881;28;20037;-67
2021/12/30 00:06:40;;;;;;;26.67;5.20;;;9.20;99.90;;;;;;4964451;28;20041;-66
2021/12/30 00:09:07;;;;;;;32.97;5.65;;;9.20;99.90;;;;;;4979997;28;20037;-66
2021/12/30 00:11:34;;;;;;;28.92;5.47;;;9.10;99.90;;;;;;4996074;28;20050;-66
2021/12/30 00:13:59;;;;;;;29.95;5.50;;;9.20;99.90;;;;;;5001068;28;20083;-66
2021/12/30 00:16:25;;;;;;;33.97;6.20;;;9.10;99.90;;;;;;5015606;28;20045;-66
2021/12/30 00:18:50;;;;;;;28.75;5.93;;;9.10;99.90;;;;;;5016109;28;20132;-66
2021/12/30 00:21:16;;;;;;;27.20;5.88;;;9.00;99.90;;;;;;5015622;28;20095;-66
2021/12/30 00:23:43;;;;;;;34.30;6.82;;;9.00;99.90;;;;;;4987748;28;20041;-66
2021/12/30 00:26:09;;;;;;;32.33;5.38;;;9.00;99.90;;;;;;5015930;28;20038;-66
2021/12/30 00:28:34;;;;;;;31.58;7.18;;;9.00;99.90;;;;;;5033670;28;20168;-67
2021/12/30 00:31:00;;;;;;;33.45;6.55;;;9.00;99.90;;;;;;4999006;28;20450;-66
2021/12/30 00:33:27;;;;;;;25.55;5.40;;;9.00;99.90;;;;;;5015300;28;20060;-66
2021/12/30 00:35:54;;;;;;;29.08;5.60;;;9.10;99.90;;;;;;5033477;28;20049;-66
2021/12/30 00:38:20;;;;;;;31.67;5.32;;;9.00;99.90;;;;;;5015815;28;20044;-66
2021/12/30 00:40:46;;;;;;;26.83;5.68;;;9.00;99.90;;;;;;5015644;28;20543;-66
2021/12/30 00:43:12;;;;;;;26.33;5.78;;;8.90;99.90;;;;;;5016105;28;20112;-66
2021/12/30 00:45:39;;;;;;;35.75;6.35;;;8.90;99.90;;;;;;4997380;28;20432;-66
2021/12/30 00:48:06;;;;;;;34.30;5.85;;;8.90;99.90;;;;;;5013734;28;20038;-66
2021/12/30 00:50:33;;;;;;;27.73;6.07;;;8.90;99.90;;;;;;4996215;28;20046;-66
2021/12/30 00:53:00;;;;;;;28.77;5.40;;;8.90;99.90;;;;;;5013587;28;20074;-66
2021/12/30 00:55:27;;;;;;;31.48;6.00;;;8.90;99.90;;;;;;5029525;28;20108;-66
2021/12/30 00:57:52;;;;;;;38.20;6.68;;;8.90;99.90;;;;;;5033117;28;20378;-66
2021/12/30 01:00:20;;;;;;;25.60;5.18;;;8.90;99.90;;;;;;4999260;28;20053;-66
2021/12/30 01:02:45;;;;;;;33.08;5.85;;;8.80;99.90;;;;;;5032864;28;20458;-66
2021/12/30 01:05:11;;;;;;;28.75;5.10;;;8.80;99.90;;;;;;5001353;28;20029;-66
2021/12/30 01:07:38;;;;;;;32.88;6.00;;;8.80;99.90;;;;;;4996040;28;20131;-66
2021/12/30 01:10:05;;;;;;;29.15;5.15;;;8.70;99.90;;;;;;4995737;28;20076;-66
2021/12/30 01:12:31;;;;;;;25.77;5.35;;;8.70;99.90;;;;;;4980347;28;20120;-66
2021/12/30 01:14:57;;;;;;;31.73;6.13;;;8.70;99.90;;;;;;4991608;28;20482;-66
2021/12/30 01:17:41;;;;;;;30.48;6.05;;;8.70;99.90;;;;;;5032646;28;20049;-66
2021/12/30 01:20:09;;;;;;;29.13;5.38;;;8.80;99.90;;;;;;5033418;28;20042;-66
2021/12/30 01:22:35;;;;;;;29.58;5.55;;;8.80;99.90;;;;;;5014304;28;20037;-66
2021/12/30 01:25:02;;;;;;;28.15;5.60;;;8.70;99.90;;;;;;4999875;28;20427;-66
2021/12/30 01:27:28;;;;;;;31.83;6.43;;;8.70;99.90;;;;;;5016692;28;20052;-65
2021/12/30 01:29:54;;;;;;;33.13;6.50;;;8.60;99.90;;;;;;4998951;28;20042;-66
2021/12/30 01:32:20;;;;;;;30.23;6.10;;;8.70;99.90;;;;;;4999436;28;20073;-66
2021/12/30 01:34:48;;;;;;;33.40;6.95;;;8.70;99.90;;;;;;5009665;28;20037;-67
2021/12/30 01:37:14;;;;;;;36.08;7.38;;;8.80;99.90;;;;;;5018884;28;20092;-66
2021/12/30 01:39:40;;;;;;;30.98;7.43;;;8.90;99.90;;;;;;5018339;28;20465;-66
2021/12/30 01:42:08;;;;;;;35.40;7.43;;;9.00;99.90;;;;;;5018668;28;20041;-66
2021/12/30 01:44:34;;;;;;;34.45;7.35;;;9.00;99.90;;;;;;5017920;28;20053;-66
2021/12/30 01:47:03;;;;;;;34.05;8.57;;;9.00;99.90;;;;;;5018638;28;20050;-67
2021/12/30 01:49:29;;;;;;;35.08;8.68;;;9.10;99.90;;;;;;5018971;28;20076;-66
2021/12/30 01:51:55;;;;;;;41.38;9.48;;;9.20;99.90;;;;;;5018519;28;20402;-66
2021/12/30 01:54:22;;;;;;;35.33;8.85;;;9.30;99.90;;;;;;5011568;28;20050;-66
2021/12/30 01:56:50;;;;;;;32.38;8.85;;;9.30;99.90;;;;;;4998616;28;20081;-66
2021/12/30 01:59:17;;;;;;;42.13;11.38;;;9.30;99.90;;;;;;4998604;28;20042;-67
2021/12/30 02:01:42;;;;;;;39.78;9.25;;;9.30;99.90;;;;;;4998086;28;20081;-66
2021/12/30 02:04:08;;;;;;;39.03;9.77;;;9.40;99.90;;;;;;5021527;28;20060;-66
2021/12/30 02:06:33;;;;;;;35.17;9.52;;;9.40;99.90;;;;;;5018281;28;20045;-66
2021/12/30 02:09:00;;;;;;;37.88;10.07;;;9.40;99.90;;;;;;5035846;28;20183;-66
2021/12/30 02:11:27;;;;;;;35.67;9.88;;;9.30;99.90;;;;;;5001464;28;20049;-66
2021/12/30 02:13:53;;;;;;;35.03;10.85;;;9.30;99.90;;;;;;5032191;28;20398;-66
2021/12/30 02:16:21;;;;;;;38.90;11.82;;;9.30;99.90;;;;;;4997969;28;20057;-66
2021/12/30 02:18:47;;;;;;;42.38;10.68;;;9.40;99.90;;;;;;5015681;28;20060;-66
2021/12/30 02:21:13;;;;;;;40.15;12.13;;;9.40;99.90;;;;;;4981948;28;20363;-66
2021/12/30 02:23:39;;;;;;;35.03;12.38;;;9.50;99.90;;;;;;5028482;28;20033;-66
2021/12/30 02:26:14;;;;;;;39.65;11.68;;;9.50;99.90;;;;;;5017996;28;20037;-66
2021/12/30 02:28:41;;;;;;;47.55;12.43;;;9.60;99.90;;;;;;5035148;28;20041;-66
2021/12/30 02:31:11;;;;;;;51.10;12.65;;;9.60;99.90;;;;;;5034470;28;20393;-66
2021/12/30 02:33:38;;;;;;;47.42;12.38;;;9.60;99.90;;;;;;5033646;28;20041;-66
2021/12/30 02:36:05;;;;;;;41.55;10.90;;;9.70;99.90;;;;;;5014985;28;20428;-66
2021/12/30 02:38:30;;;;;;;47.95;12.75;;;9.70;99.90;;;;;;4981328;28;20136;-66
2021/12/30 02:40:58;;;;;;;47.60;12.98;;;9.70;99.90;;;;;;4997329;28;20133;-66
2021/12/30 02:43:26;;;;;;;49.22;13.02;;;9.80;99.90;;;;;;4997816;28;20112;-66
2021/12/30 02:45:53;;;;;;;39.03;12.10;;;9.80;99.90;;;;;;5016711;28;20049;-66
2021/12/30 02:48:21;;;;;;;45.03;12.13;;;9.80;99.90;;;;;;5017586;28;20041;-66
2021/12/30 02:50:49;;;;;;;44.08;11.60;;;9.90;99.90;;;;;;5017207;28;20049;-66
2021/12/30 02:53:15;;;;;;;43.10;11.15;;;10.00;99.90;;;;;;5017326;28;20045;-66
2021/12/30 02:55:43;;;;;;;49.30;11.93;;;10.00;99.90;;;;;;4999616;28;20046;-66
2021/12/30 02:58:10;;;;;;;44.28;11.68;;;9.90;99.90;;;;;;4997668;28;20463;-66
2021/12/30 03:00:36;;;;;;;50.78;11.50;;;10.00;99.90;;;;;;4997335;28;20056;-66
2021/12/30 03:03:03;;;;;;;49.28;11.43;;;10.00;99.90;;;;;;4997438;28;20046;-66
2021/12/30 03:05:29;;;;;;;44.75;11.70;;;10.00;99.90;;;;;;5012735;28;20048;-66
2021/12/30 03:07:55;;;;;;;37.13;10.90;;;10.00;99.90;;;;;;5016981;28;20045;-66
2021/12/30 03:10:23;;;;;;;36.75;10.82;;;10.10;99.90;;;;;;5016713;28;20134;-66
2021/12/30 03:12:56;;;;;;;40.80;10.07;;;10.00;99.90;;;;;;5034576;28;20049;-66
2021/12/30 03:15:23;;;;;;;45.05;10.25;;;10.10;99.90;;;;;;5002207;28;20390;-66
2021/12/30 03:17:50;;;;;;;37.92;9.95;;;10.10;99.90;;;;;;4996888;28;20133;-66
2021/12/30 03:20:16;;;;;;;38.17;9.45;;;10.10;99.90;;;;;;5014275;28;20046;-66
2021/12/30 03:22:44;;;;;;;37.75;9.88;;;10.10;99.90;;;;;;4997279;28;20411;-66
2021/12/30 03:25:12;;;;;;;48.95;10.75;;;10.10;99.90;;;;;;5010086;28;20051;-66
2021/12/30 03:27:38;;;;;;;40.70;10.13;;;10.20;99.90;;;;;;5016840;28;20045;-66
2021/12/30 03:30:08;;;;;;;39.03;9.48;;;10.20;99.90;;;;;;5016381;28;20408;-66
2021/12/30 03:32:34;;;;;;;29.65;9.57;;;10.20;99.90;;;;;;5033867;28;20099;-66
2021/12/30 03:35:00;;;;;;;41.42;10.55;;;10.20;99.90;;;;;;5004750;28;20049;-66
2021/12/30 03:37:26;;;;;;;32.88;8.95;;;10.20;99.90;;;;;;4996670;28;20132;-66
2021/12/30 03:39:51;;;;;;;43.60;10.57;;;10.20;99.90;;;;;;4996421;28;20120;-66
2021/12/30 03:42:17;;;;;;;45.22;10.25;;;10.20;99.90;;;;;;4980553;28;20077;-66
2021/12/30 03:44:44;;;;;;;41.58;10.82;;;10.30;99.90;;;;;;5022924;28;20047;-66
2021/12/30 03:47:16;;;;;;;42.88;10.45;;;10.40;99.90;;;;;;5016373;28;20041;-66
2021/12/30 03:49:44;;;;;;;39.70;11.25;;;10.30;99.90;;;;;;5016390;28;20049;-66
2021/12/30 03:52:15;;;;;;;43.80;10.73;;;10.40;99.90;;;;;;5000336;28;20115;-66
2021/12/30 03:54:41;;;;;;;47.20;10.98;;;10.40;99.90;;;;;;5015390;28;20038;-66
2021/12/30 03:57:07;;;;;;;43.80;11.43;;;10.40;99.90;;;;;;5016107;28;20041;-66
2021/12/30 03:59:33;;;;;;;39.88;10.65;;;10.40;99.90;;;;;;4999470;28;20041;-66
2021/12/30 04:01:59;;;;;;;43.53;10.90;;;10.40;99.90;;;;;;4999795;28;20041;-66
2021/12/30 04:04:24;;;;;;;45.88;11.07;;;10.40;99.90;;;;;;5009573;28;20048;-66
2021/12/30 04:06:50;;;;;;;50.08;11.27;;;10.50;99.90;;;;;;5014151;28;20053;-66
2021/12/30 04:09:15;;;;;;;52.72;11.60;;;10.40;99.90;;;;;;4996773;28;20053;-65
2021/12/30 04:11:41;;;;;;;39.75;11.80;;;10.50;99.90;;;;;;5013498;28;20466;-65
2021/12/30 04:14:07;;;;;;;49.95;11.45;;;10.50;99.90;;;;;;5017757;28;20134;-65
2021/12/30 04:16:34;;;;;;;51.97;12.13;;;10.50;99.90;;;;;;5033279;28;20061;-65
2021/12/30 04:19:01;;;;;;;39.22;11.48;;;10.40;99.90;;;;;;5033418;28;20049;-66
2021/12/30 04:21:27;;;;;;;38.00;11.02;;;10.50;99.90;;;;;;5033263;28;20041;-65
2021/12/30 04:23:53;;;;;;;38.92;10.50;;;10.50;99.90;;;;;;5019721;28;20546;-65
2021/12/30 04:26:19;;;;;;;27.23;9.77;;;10.50;99.90;;;;;;5033762;28;20044;-66
2021/12/30 04:28:45;;;;;;;31.88;10.57;;;10.50;99.90;;;;;;5033658;28;20037;-67
2021/12/30 04:31:11;;;;;;;38.85;11.35;;;10.60;99.90;;;;;;5032882;28;20033;-65
2021/12/30 04:33:37;;;;;;;36.55;11.30;;;10.60;99.90;;;;;;5032915;28;20048;-66
2021/12/30 04:36:03;;;;;;;28.58;11.63;;;10.50;99.90;;;;;;5032610;28;20037;-66
2021/12/30 04:38:31;;;;;;;36.08;12.88;;;10.50;99.90;;;;;;5033156;28;20080;-66
2021/12/30 04:40:58;;;;;;;34.50;12.63;;;10.60;99.90;;;;;;4999129;28;20103;-66
2021/12/30 04:43:24;;;;;;;33.67;13.32;;;10.60;99.90;;;;;;5033507;28;20267;-65
2021/12/30 04:45:50;;;;;;;38.58;13.77;;;10.70;99.90;;;;;;5015259;28;20052;-66
2021/12/30 04:48:17;;;;;;;33.97;13.70;;;10.70;99.90;;;;;;5013677;28;20065;-66
2021/12/30 04:50:46;;;;;;;32.05;13.32;;;10.70;99.90;;;;;;5012762;28;20038;-66
2021/12/30 04:53:18;;;;;;;38.33;15.30;;;10.80;99.90;;;;;;5013190;28;20030;-66
2021/12/30 04:55:44;;;;;;;36.38;14.82;;;10.80;99.90;;;;;;5014065;28;20656;-66
2021/12/30 04:58:10;;;;;;;39.95;14.80;;;10.80;99.90;;;;;;5037150;28;20446;-66
2021/12/30 05:00:35;;;;;;;37.22;16.38;;;10.80;99.90;;;;;;5018836;28;20441;-67
2021/12/30 05:03:14;;;;;;;38.80;16.08;;;10.80;99.90;;;;;;5037003;28;20076;-66
2021/12/30 05:05:46;;;;;;;41.78;16.50;;;10.90;99.90;;;;;;5020281;28;20045;-67
2021/12/30 05:08:13;;;;;;;34.80;16.45;;;10.90;99.90;;;;;;4999685;28;20371;-66
2021/12/30 05:10:39;;;;;;;45.45;17.45;;;11.00;99.90;;;;;;4999489;28;20050;-67
2021/12/30 05:13:06;;;;;;;44.63;17.67;;;11.00;99.90;;;;;;5016972;28;20042;-67
2021/12/30 05:15:33;;;;;;;42.88;17.80;;;11.00;99.90;;;;;;5013820;28;20068;-65
2021/12/30 05:17:59;;;;;;;41.38;18.10;;;11.00;99.90;;;;;;5036507;28;20041;-66
2021/12/30 05:20:24;;;;;;;42.70;17.98;;;11.10;99.90;;;;;;5036186;28;20041;-68
2021/12/30 05:22:50;;;;;;;39.50;17.13;;;11.10;99.90;;;;;;5011758;28;20026;-67
2021/12/30 05:25:19;;;;;;;44.95;19.50;;;11.10;99.90;;;;;;5011867;28;20117;-68
2021/12/30 05:27:46;;;;;;;52.20;20.08;;;11.10;99.90;;;;;;5036325;28;20187;-66
2021/12/30 05:30:13;;;;;;;44.42;18.65;;;11.10;99.90;;;;;;5018377;28;20059;-66
2021/12/30 05:32:39;;;;;;;60.00;20.20;;;11.10;99.90;;;;;;5036331;28;20171;-66
2021/12/30 05:35:07;;;;;;;48.72;19.63;;;11.10;99.90;;;;;;5007162;28;20050;-67
2021/12/30 05:37:32;;;;;;;55.10;18.45;;;11.20;99.90;;;;;;5016500;28;20045;-66
2021/12/30 05:39:58;;;;;;;47.40;18.48;;;11.20;99.90;;;;;;5016143;28;20034;-66
2021/12/30 05:42:24;;;;;;;48.45;18.23;;;11.30;99.90;;;;;;5016299;28;20447;-66
2021/12/30 05:44:54;;;;;;;44.05;17.98;;;11.20;99.90;;;;;;5025570;28;20103;-67
2021/12/30 05:47:21;;;;;;;41.33;18.40;;;11.20;99.90;;;;;;5036317;28;20041;-67
2021/12/30 05:49:47;;;;;;;48.95;17.90;;;11.40;99.90;;;;;;5035769;28;20084;-65
2021/12/30 05:52:13;;;;;;;45.42;18.20;;;11.30;99.90;;;;;;5035750;28;20041;-66
2021/12/30 05:54:43;;;;;;;43.17;17.73;;;11.40;99.90;;;;;;5028297;28;20104;-68
2021/12/30 05:57:09;;;;;;;44.88;18.27;;;11.40;99.90;;;;;;5015946;28;20125;-67
2021/12/30 05:59:36;;;;;;;47.38;17.30;;;11.40;99.90;;;;;;4998165;28;20160;-66
2021/12/30 06:02:06;;;;;;;46.35;17.27;;;11.40;99.90;;;;;;5015703;28;20477;-66
2021/12/30 06:04:32;;;;;;;39.85;16.45;;;11.50;99.90;;;;;;5034934;28;20037;-67
2021/12/30 06:06:58;;;;;;;42.00;16.15;;;11.50;99.90;;;;;;5007520;28;20116;-66
2021/12/30 06:09:25;;;;;;;43.80;16.83;;;11.50;99.90;;;;;;5014740;28;20046;-67
2021/12/30 06:11:52;;;;;;;36.65;16.60;;;11.50;99.90;;;;;;5014982;28;20048;-67
2021/12/30 06:14:18;;;;;;;41.67;17.35;;;11.60;99.90;;;;;;5015617;28;20036;-68
2021/12/30 06:16:43;;;;;;;36.67;16.40;;;11.60;99.90;;;;;;5014506;28;20053;-68
2021/12/30 06:19:09;;;;;;;42.80;16.88;;;11.60;99.90;;;;;;5014643;28;20073;-67
2021/12/30 06:21:35;;;;;;;36.30;16.02;;;11.60;99.90;;;;;;5000269;28;20070;-67
2021/12/30 06:24:00;;;;;;;34.80;15.55;;;11.60;99.90;;;;;;5015506;28;20054;-67
2021/12/30 06:26:26;;;;;;;36.17;15.82;;;11.60;99.90;;;;;;4997418;28;20128;-67
2021/12/30 06:28:52;;;;;;;32.28;14.55;;;11.60;99.90;;;;;;5014077;28;20041;-66
2021/12/30 06:31:19;;;;;;;26.38;14.10;;;11.60;99.90;;;;;;5014987;28;20117;-66
2021/12/30 06:33:44;;;;;;;29.83;14.07;;;11.60;99.90;;;;;;5015493;28;20056;-66
2021/12/30 06:36:10;;;;;;;28.67;13.35;;;11.60;99.90;;;;;;5034592;28;20042;-67
2021/12/30 06:38:36;;;;;;;30.33;13.10;;;11.60;99.90;;;;;;5017441;28;20469;-67
2021/12/30 06:41:02;;;;;;;25.45;12.98;;;11.60;99.90;;;;;;5034812;28;20125;-65
2021/12/30 06:43:28;;;;;;;25.00;11.82;;;11.70;99.90;;;;;;5017370;28;20042;-66
2021/12/30 06:45:54;;;;;;;22.45;11.80;;;11.60;99.90;;;;;;5017029;28;20100;-65
2021/12/30 06:48:20;;;;;;;21.80;11.20;;;11.60;99.90;;;;;;5015341;28;20037;-65
2021/12/30 06:50:51;;;;;;;20.77;10.15;;;11.70;99.90;;;;;;4981262;28;20037;-67
2021/12/30 06:53:22;;;;;;;17.55;8.80;;;11.70;99.90;;;;;;4997692;28;20046;-66
2021/12/30 06:55:48;;;;;;;15.85;7.97;;;11.60;99.90;;;;;;5031048;28;20038;-65
2021/12/30 06:58:14;;;;;;;11.75;6.30;;;11.60;99.90;;;;;;5034413;28;20064;-65
2021/12/30 07:00:40;;;;;;;11.05;6.38;;;11.70;99.90;;;;;;5034271;28;20038;-65
2021/12/30 07:03:06;;;;;;;8.60;5.65;;;11.70;99.90;;;;;;5034627;28;20346;-66
2021/12/30 07:05:33;;;;;;;7.25;5.00;;;11.70;99.90;;;;;;5020388;28;20034;-65
2021/12/30 07:07:58;;;;;;;9.70;5.28;;;11.80;99.90;;;;;;4997411;28;20050;-65
2021/12/30 07:10:24;;;;;;;9.13;5.22;;;11.70;99.90;;;;;;5014069;28;20060;-66
2021/12/30 07:12:50;;;;;;;8.82;4.60;;;11.70;99.90;;;;;;5014999;28;20143;-65
2021/12/30 07:15:16;;;;;;;8.38;5.13;;;11.70;99.90;;;;;;5026099;28;20063;-65
2021/12/30 07:17:41;;;;;;;9.38;5.22;;;11.60;99.90;;;;;;5033424;28;20053;-65
2021/12/30 07:20:09;;;;;;;8.50;5.20;;;11.60;99.90;;;;;;5034097;28;20052;-66
2021/12/30 07:22:35;;;;;;;8.40;5.80;;;11.60;99.90;;;;;;5029358;28;20030;-65
2021/12/30 07:25:02;;;;;;;10.55;6.80;;;11.60;99.90;;;;;;5024238;28;20450;-66
2021/12/30 07:27:28;;;;;;;10.77;6.30;;;11.60;99.90;;;;;;5034023;28;20469;-67
2021/12/30 07:29:54;;;;;;;11.00;6.88;;;11.60;99.90;;;;;;5033582;28;20128;-65
2021/12/30 07:32:19;;;;;;;11.15;7.18;;;11.50;99.90;;;;;;5034148;28;20073;-66
2021/12/30 07:34:45;;;;;;;10.32;7.15;;;11.70;99.90;;;;;;5025926;28;20036;-66
2021/12/30 07:37:14;;;;;;;10.35;7.10;;;11.70;99.90;;;;;;5014338;28;20462;-66
2021/12/30 07:39:41;;;;;;;14.98;8.30;;;11.80;99.90;;;;;;5013831;28;20042;-66
2021/12/30 07:42:07;;;;;;;13.57;8.30;;;11.70;99.90;;;;;;5014102;28;20049;-65
2021/12/30 07:44:32;;;;;;;12.52;7.70;;;11.70;99.90;;;;;;5019801;28;20033;-65
2021/12/30 07:46:58;;;;;;;14.68;8.75;;;11.70;99.90;;;;;;5033627;28;20416;-66
2021/12/30 07:49:23;;;;;;;14.27;8.80;;;11.70;99.90;;;;;;5029390;28;20356;-68
2021/12/30 07:51:49;;;;;;;15.85;8.85;;;11.80;99.90;;;;;;5013614;28;20100;-66
2021/12/30 07:54:15;;;;;;;15.43;9.63;;;11.80;99.90;;;;;;4996474;28;20042;-66
2021/12/30 07:56:41;;;;;;;16.90;9.93;;;11.80;99.90;;;;;;5013537;28;20034;-66
2021/12/30 07:59:06;;;;;;;16.95;10.75;;;11.90;99.90;;;;;;4995581;28;20359;-66
2021/12/30 08:01:32;;;;;;;17.20;11.40;;;11.90;99.90;;;;;;5024062;28;20044;-65
2021/12/30 08:03:58;;;;;;;18.83;10.75;;;12.00;99.90;;;;;;5032268;28;20040;-67
2021/12/30 08:06:27;;;;;;;17.48;11.38;;;12.00;99.90;;;;;;5033245;28;20049;-65
2021/12/30 08:08:53;;;;;;;18.17;11.10;;;12.10;99.90;;;;;;5033329;28;20057;-66
2021/12/30 08:11:18;;;;;;;22.92;11.95;;;12.20;99.90;;;;;;5015517;28;20049;-66
2021/12/30 08:13:44;;;;;;;19.15;10.93;;;12.00;99.90;;;;;;5033138;28;20045;-66
2021/12/30 08:16:10;;;;;;;18.50;12.13;;;12.20;99.90;;;;;;5014341;28;20066;-66
2021/12/30 08:18:35;;;;;;;20.60;10.80;;;12.20;99.90;;;;;;5032616;28;20075;-66
2021/12/30 08:21:02;;;;;;;16.92;8.77;;;12.30;99.90;;;;;;5032852;28;20080;-66
2021/12/30 08:23:28;;;;;;;17.70;9.40;;;12.40;99.90;;;;;;5022555;28;20042;-66
2021/12/30 08:25:54;;;;;;;18.38;7.97;;;12.40;99.90;;;;;;5014365;28;20033;-66
2021/12/30 08:28:21;;;;;;;13.60;7.07;;;12.40;99.90;;;;;;4996444;28;20463;-66
2021/12/30 08:30:47;;;;;;;11.70;6.30;;;12.40;99.90;;;;;;5020070;28;20099;-66
2021/12/30 08:33:13;;;;;;;13.95;6.35;;;12.50;99.90;;;;;;5029425;28;20506;-66
2021/12/30 08:35:38;;;;;;;16.02;6.55;;;12.60;99.90;;;;;;5019050;28;20339;-66
2021/12/30 08:38:04;;;;;;;12.02;5.88;;;12.60;99.90;;;;;;5037734;28;20092;-67
2021/12/30 08:40:30;;;;;;;12.43;6.45;;;12.70;99.90;;;;;;5036817;28;20127;-67
2021/12/30 08:42:56;;;;;;;13.52;5.80;;;12.70;99.90;;;;;;5037133;28;20049;-66
2021/12/30 08:45:22;;;;;;;14.30;5.40;;;12.80;99.90;;;;;;5036381;28;20361;-66
2021/12/30 08:47:48;;;;;;;11.95;6.05;;;12.70;99.90;;;;;;5018484;28;20055;-66
2021/12/30 08:50:16;;;;;;;15.63;6.85;;;12.70;99.90;;;;;;5026695;28;20041;-66
2021/12/30 08:52:43;;;;;;;13.98;6.68;;;12.70;99.90;;;;;;5031369;28;20056;-66
2021/12/30 08:55:09;;;;;;;16.65;7.38;;;12.70;99.90;;;;;;5035589;28;20053;-67
2021/12/30 08:57:38;;;;;;;13.38;7.25;;;12.60;99.90;;;;;;5035364;28;20096;-67
2021/12/30 09:00:07;;;;;;;15.25;7.47;;;12.60;99.90;;;;;;5035312;28;20462;-67
2021/12/30 09:02:33;;;;;;;17.75;8.80;;;12.60;99.90;;;;;;5035631;28;20084;-66
2021/12/30 09:04:59;;;;;;;11.68;7.30;;;12.60;99.90;;;;;;5035697;28;20068;-66
2021/12/30 09:07:24;;;;;;;12.90;7.72;;;12.70;99.90;;;;;;5036413;28;20083;-66
2021/12/30 09:09:50;;;;;;;18.15;9.02;;;12.60;99.90;;;;;;5036069;28;20091;-67
2021/12/30 09:12:18;;;;;;;22.75;9.57;;;12.70;99.90;;;;;;5026226;28;20099;-66
2021/12/30 09:14:43;;;;;;;11.90;9.05;;;12.70;99.90;;;;;;5022985;28;20448;-66
2021/12/30 09:17:09;;;;;;;13.90;9.35;;;12.60;99.90;;;;;;5036501;28;20438;-66
2021/12/30 09:19:35;;;;;;;19.73;9.60;;;12.70;99.90;;;;;;5018873;28;20468;-66
2021/12/30 09:22:00;;;;;;;16.33;10.00;;;12.60;99.90;;;;;;5035947;28;20107;-67
2021/12/30 09:24:26;;;;;;;17.15;9.82;;;12.70;99.90;;;;;;5031261;28;20497;-67
2021/12/30 09:26:52;;;;;;;18.20;9.90;;;12.60;99.90;;;;;;4996133;28;20038;-66
2021/12/30 09:29:17;;;;;;;14.82;7.80;;;12.70;99.90;;;;;;4995157;28;20073;-67
2021/12/30 09:31:49;;;;;;;16.13;8.82;;;12.70;99.90;;;;;;5011473;28;20057;-67
2021/12/30 09:34:15;;;;;;;13.38;7.75;;;12.70;99.90;;;;;;4999685;28;21233;-67
2021/12/30 09:36:41;;;;;;;14.52;8.18;;;12.80;99.90;;;;;;5034701;28;20281;-68
2021/12/30 09:39:11;;;;;;;15.40;7.50;;;12.70;99.90;;;;;;5033511;28;20125;-68
2021/12/30 09:41:39;;;;;;;15.43;6.63;;;12.70;99.90;;;;;;5035239;28;20401;-68
2021/12/30 09:44:06;;;;;;;17.45;7.82;;;12.70;99.90;;;;;;5007485;28;20044;-65
2021/12/30 09:46:32;;;;;;;13.95;6.95;;;12.80;99.90;;;;;;5016029;28;20387;-67
2021/12/30 09:48:58;;;;;;;16.63;6.43;;;12.70;99.90;;;;;;4998261;28;20142;-67
2021/12/30 09:51:24;;;;;;;17.48;6.28;;;12.80;99.90;;;;;;4998743;28;20130;-68
2021/12/30 09:53:53;;;;;;;15.15;6.25;;;12.90;99.90;;;;;;5016200;28;20057;-68
2021/12/30 09:56:19;;;;;;;20.15;6.22;;;12.90;99.90;;;;;;5035012;28;20037;-68
2021/12/30 09:58:45;;;;;;;16.95;6.15;;;13.00;99.90;;;;;;5051207;28;20416;-68
2021/12/30 10:01:11;;;;;;;12.05;5.57;;;12.90;99.90;;;;;;5016060;28;20139;-67
2021/12/30 10:03:37;;;;;;;20.02;5.88;;;13.00;99.90;;;;;;4982344;28;20082;-67
2021/12/30 10:06:11;;;;;;;21.45;6.20;;;13.00;99.90;;;;;;4998918;28;20050;-67
2021/12/30 10:08:42;;;;;;;18.85;5.68;;;12.80;99.90;;;;;;5015570;28;20455;-67
2021/12/30 10:11:14;;;;;;;20.48;5.53;;;12.90;99.90;;;;;;4982117;28;20148;-68
2021/12/30 10:13:59;;;;;;;17.42;5.25;;;12.90;99.90;;;;;;4998590;28;20050;-68
2021/12/30 10:16:26;;;;;;;17.38;4.95;;;12.90;99.90;;;;;;5034819;28;20057;-68
2021/12/30 10:18:57;;;;;;;14.60;4.65;;;13.00;99.90;;;;;;5017584;28;20053;-68
2021/12/30 10:21:33;;;;;;;19.08;5.53;;;13.00;99.90;;;;;;5035371;28;20037;-67
2021/12/30 10:24:02;;;;;;;23.95;6.35;;;12.80;99.90;;;;;;5019141;28;20037;-66
2021/12/30 10:26:28;;;;;;;20.52;5.40;;;12.80;99.90;;;;;;5015551;28;20060;-66
2021/12/30 10:29:02;;;;;;;18.48;5.60;;;12.80;99.90;;;;;;5014847;28;20478;-66
2021/12/30 10:31:31;;;;;;;17.70;4.78;;;12.80;99.90;;;;;;5015382;28;20041;-66
2021/12/30 10:34:01;;;;;;;23.77;6.28;;;12.80;99.90;;;;;;5015470;28;20045;-66
2021/12/30 10:36:41;;;;;;;26.50;7.07;;;12.90;99.90;;;;;;5017415;28;20044;-66
2021/12/30 10:39:34;;;;;;;28.83;6.72;;;12.80;99.90;;;;;;4999299;28;20050;-67
2021/12/30 10:42:05;;;;;;;26.83;6.35;;;12.70;99.90;;;;;;5031275;28;20073;-66
2021/12/30 10:44:54;;;;;;;20.80;6.07;;;12.80;99.90;;;;;;5034023;28;20357;-66
2021/12/30 10:47:25;;;;;;;32.20;7.43;;;12.90;99.90;;;;;;5017388;28;20037;-67
2021/12/30 10:50:01;;;;;;;23.33;6.15;;;12.80;99.90;;;;;;5017063;28;20072;-67
2021/12/30 10:52:27;;;;;;;31.65;7.22;;;12.90;99.90;;;;;;5000222;28;20056;-67
2021/12/30 10:54:53;;;;;;;35.63;6.97;;;12.80;99.90;;;;;;5009490;28;20037;-68
2021/12/30 10:57:19;;;;;;;27.35;6.78;;;12.80;99.90;;;;;;5015107;28;20045;-68
2021/12/30 10:59:49;;;;;;;29.73;6.55;;;12.70;99.90;;;;;;5014537;28;20045;-68
2021/12/30 11:02:18;;;;;;;27.80;7.28;;;12.80;99.90;;;;;;5014785;28;20045;-68
2021/12/30 11:04:48;;;;;;;30.00;6.75;;;12.90;99.90;;;;;;5003069;28;20041;-68
2021/12/30 11:07:19;;;;;;;27.77;6.15;;;12.80;99.90;;;;;;5017424;28;20053;-68
2021/12/30 11:09:51;;;;;;;26.42;7.05;;;12.80;99.90;;;;;;5034264;28;20049;-68
2021/12/30 11:12:24;;;;;;;23.98;6.95;;;12.90;99.90;;;;;;5034419;28;20366;-68
2021/12/30 11:14:57;;;;;;;27.60;6.97;;;12.90;99.90;;;;;;5193502;27;20395;-66
2021/12/30 11:17:34;;;;;;;20.75;5.47;;;12.90;99.90;;;;;;5176169;27;20080;-68
2021/12/30 11:20:05;;;;;;;28.38;6.40;;;12.90;99.90;;;;;;5180309;27;20078;-67
2021/12/30 11:22:33;;;;;;;28.38;5.72;;;12.80;99.90;;;;;;5177216;27;20090;-67
2021/12/30 11:25:01;;;;;;;24.55;5.30;;;12.90;99.90;;;;;;5174883;27;20070;-67
2021/12/30 11:27:28;;;;;;;20.38;5.22;;;12.90;99.90;;;;;;5194118;27;20077;-67
2021/12/30 11:30:04;;;;;;;20.85;4.68;;;12.90;99.90;;;;;;5176986;27;20038;-67
2021/12/30 11:32:32;;;;;;;23.90;5.68;;;12.90;99.90;;;;;;5172863;27;20320;-68
2021/12/30 11:34:59;;;;;;;20.98;4.53;;;12.90;99.90;;;;;;5173519;27;20511;-67
2021/12/30 11:37:25;;;;;;;24.63;5.00;;;12.80;99.90;;;;;;5173299;27;20030;-67
2021/12/30 11:39:54;;;;;;;21.85;4.80;;;12.80;99.90;;;;;;5154393;27;20057;-67
2021/12/30 11:42:45;;;;;;;25.38;5.05;;;12.90;99.90;;;;;;5184611;27;20327;-68
2021/12/30 11:45:37;;;;;;;18.42;4.57;;;12.90;99.90;;;;;;5193103;27;20094;-68
2021/12/30 11:48:05;;;;;;;21.40;5.10;;;12.90;99.90;;;;;;5193909;27;20030;-67
2021/12/30 11:50:36;;;;;;;19.67;4.75;;;13.00;99.90;;;;;;5173208;27;20040;-68
2021/12/30 11:53:12;;;;;;;19.55;5.00;;;12.90;99.90;;;;;;5172515;27;20045;-68
2021/12/30 11:55:48;;;;;;;21.40;4.95;;;12.90;99.90;;;;;;5167376;27;20048;-70
2021/12/30 11:58:34;;;;;;;20.85;4.75;;;13.00;99.90;;;;;;5193624;27;20033;-69
2021/12/30 12:01:12;;;;;;;18.42;4.95;;;12.90;99.90;;;;;;5193400;27;20069;-68
2021/12/30 12:03:52;;;;;;;23.02;4.93;;;13.00;99.90;;;;;;5174886;27;20458;-68
2021/12/30 12:06:27;;;;;;;26.67;5.20;;;13.00;99.90;;;;;;5173898;27;20049;-68
2021/12/30 12:09:03;;;;;;;17.50;4.28;;;13.10;99.90;;;;;;5193096;27;20050;-68
2021/12/30 12:11:51;;;;;;;20.83;4.85;;;13.00;99.90;;;;;;5174900;27;20132;-69
2021/12/30 12:14:25;;;;;;;14.73;3.88;;;13.10;99.90;;;;;;5190734;27;20054;-70
2021/12/30 12:17:00;;;;;;;23.10;5.10;;;13.10;99.90;;;;;;5172229;27;20042;-69
2021/12/30 12:19:46;;;;;;;19.45;4.90;;;13.10;99.90;;;;;;5172096;27;20040;-69
2021/12/30 12:22:18;;;;;;;21.30;4.80;;;13.10;99.90;;;;;;5155665;27;20526;-69
2021/12/30 12:24:46;;;;;;;22.00;4.55;;;13.10;99.90;;;;;;5168780;27;20396;-66
2021/12/30 12:27:31;;;;;;;23.80;4.10;;;13.10;99.90;;;;;;5160574;27;20125;-68
2021/12/30 12:30:00;;;;;;;20.95;4.63;;;13.10;99.90;;;;;;5178644;27;20369;-69
2021/12/30 12:32:38;;;;;;;21.83;4.03;;;13.10;99.90;;;;;;5143490;27;20049;-68
2021/12/30 12:35:25;;;;;;;20.38;4.65;;;13.10;99.90;;;;;;5170597;27;20091;-69
2021/12/30 12:37:58;;;;;;;25.30;4.90;;;13.20;99.90;;;;;;5140171;27;20046;-68
2021/12/30 12:40:27;;;;;;;18.05;4.15;;;13.10;99.90;;;;;;5122140;27;20034;-70